Time;durP1;ratioP1;P1;durP2;ratioP2;P2;SDS_P1;SDS_P2;PMS_P1;PMS_P2;Temp;Humidity;BMP_temperature;BMP_pressure;BME280_temperature;BME280_humidity;BME280_pressure;Samples;Min_cycle;Max_cycle;Signal;HPM_P1;HPM_P2
2021/09/09 00:00:43;;;;;;;7.47;6.78;;;23.30;60.20;;;;;;5092332;28;20651;-62
2021/09/09 00:03:09;;;;;;;7.18;6.53;;;23.30;60.20;;;;;;5092591;28;20174;-62
2021/09/09 00:05:35;;;;;;;6.95;6.35;;;23.30;60.20;;;;;;5091552;28;20173;-62
2021/09/09 00:08:00;;;;;;;7.18;6.50;;;23.30;60.70;;;;;;5092611;28;20245;-61
2021/09/09 00:10:26;;;;;;;6.63;6.07;;;23.30;60.20;;;;;;5092112;28;20661;-61
2021/09/09 00:12:51;;;;;;;6.72;6.13;;;23.30;60.20;;;;;;5091884;28;20185;-60
2021/09/09 00:15:17;;;;;;;7.47;6.78;;;23.30;60.20;;;;;;5092581;28;20174;-61
2021/09/09 00:17:46;;;;;;;7.22;6.63;;;23.30;60.20;;;;;;5092181;28;20542;-61
2021/09/09 00:20:11;;;;;;;7.35;6.75;;;23.30;61.10;;;;;;5091607;28;20176;-61
2021/09/09 00:22:40;;;;;;;7.03;6.43;;;23.30;60.20;;;;;;5091443;28;20221;-61
2021/09/09 00:25:06;;;;;;;7.00;6.40;;;23.30;60.20;;;;;;5092138;28;20717;-61
2021/09/09 00:27:32;;;;;;;6.95;6.35;;;23.20;60.20;;;;;;5091368;28;20182;-61
2021/09/09 00:29:57;;;;;;;7.00;6.30;;;23.20;60.20;;;;;;5092287;28;20183;-60
2021/09/09 00:32:23;;;;;;;7.35;6.65;;;23.30;60.20;;;;;;5091943;28;20202;-61
2021/09/09 00:34:48;;;;;;;7.25;6.57;;;23.20;60.20;;;;;;5091482;28;20189;-62
2021/09/09 00:37:14;;;;;;;7.82;7.03;;;23.20;60.20;;;;;;5092122;28;20178;-62
2021/09/09 00:39:39;;;;;;;7.05;6.45;;;23.20;60.20;;;;;;5091050;28;20558;-62
2021/09/09 00:42:05;;;;;;;6.93;6.32;;;23.20;60.20;;;;;;5092437;28;20184;-61
2021/09/09 00:44:30;;;;;;;7.25;6.65;;;23.20;60.20;;;;;;5091863;28;20260;-62
2021/09/09 00:47:03;;;;;;;7.57;6.88;;;23.20;60.30;;;;;;5091460;28;20297;-63
2021/09/09 00:49:29;;;;;;;6.75;6.07;;;23.20;60.30;;;;;;5091804;28;20178;-62
2021/09/09 00:51:55;;;;;;;7.32;6.63;;;23.20;60.20;;;;;;5091961;28;20205;-62
2021/09/09 00:54:23;;;;;;;7.60;6.65;;;23.20;60.20;;;;;;5091144;28;20174;-62
2021/09/09 00:56:49;;;;;;;7.40;6.70;;;23.20;60.70;;;;;;5092129;28;20181;-61
2021/09/09 00:59:14;;;;;;;7.32;6.60;;;23.20;60.30;;;;;;5091949;28;20178;-61
2021/09/09 01:01:41;;;;;;;7.65;6.95;;;23.20;60.30;;;;;;5091395;28;20181;-62
2021/09/09 01:04:06;;;;;;;7.75;7.05;;;23.20;60.30;;;;;;5091856;28;20261;-61
2021/09/09 01:06:32;;;;;;;7.38;6.68;;;23.20;60.30;;;;;;5094091;28;20174;-62
2021/09/09 01:08:58;;;;;;;7.63;6.90;;;23.20;60.30;;;;;;5095140;28;20181;-61
2021/09/09 01:11:23;;;;;;;7.15;6.55;;;23.20;60.30;;;;;;5111241;28;20683;-61
2021/09/09 01:13:52;;;;;;;7.20;6.60;;;23.20;60.30;;;;;;5095719;28;20593;-61
2021/09/09 01:16:18;;;;;;;7.10;6.50;;;23.20;60.30;;;;;;5094878;28;20628;-61
2021/09/09 01:18:44;;;;;;;7.90;7.18;;;23.20;60.30;;;;;;5095424;28;20176;-62
2021/09/09 01:21:09;;;;;;;6.55;5.95;;;23.20;60.30;;;;;;5095456;28;20173;-61
2021/09/09 01:23:35;;;;;;;7.07;6.47;;;23.20;60.30;;;;;;5094176;28;20711;-61
2021/09/09 01:26:01;;;;;;;7.47;6.82;;;23.20;60.30;;;;;;5095384;28;20651;-61
2021/09/09 01:28:26;;;;;;;7.40;6.70;;;23.20;60.30;;;;;;5095016;28;20182;-61
2021/09/09 01:30:52;;;;;;;6.88;6.28;;;23.10;60.20;;;;;;5094795;28;20201;-61
2021/09/09 01:33:17;;;;;;;7.25;6.65;;;23.10;60.30;;;;;;5095477;28;20173;-62
2021/09/09 01:35:44;;;;;;;7.50;6.90;;;23.10;60.30;;;;;;5094877;28;20173;-62
2021/09/09 01:38:19;;;;;;;6.57;6.07;;;23.10;60.20;;;;;;5094492;28;20182;-62
2021/09/09 01:40:45;;;;;;;7.15;6.55;;;23.10;60.30;;;;;;5095314;28;20169;-62
2021/09/09 01:43:10;;;;;;;7.95;7.25;;;23.10;60.30;;;;;;5094546;28;20896;-61
2021/09/09 01:45:36;;;;;;;8.05;7.35;;;23.10;60.30;;;;;;5094827;28;20181;-62
2021/09/09 01:48:01;;;;;;;7.75;6.95;;;23.10;60.30;;;;;;5095164;28;20181;-61
2021/09/09 01:50:27;;;;;;;7.10;6.50;;;23.10;60.30;;;;;;5109748;28;20232;-62
2021/09/09 01:52:52;;;;;;;7.50;6.90;;;23.10;60.40;;;;;;5095116;28;20555;-61
2021/09/09 01:55:18;;;;;;;7.38;6.68;;;23.10;61.20;;;;;;5094850;28;20622;-61
2021/09/09 01:57:43;;;;;;;7.53;6.82;;;23.10;60.30;;;;;;5093926;28;20266;-62
2021/09/09 02:00:09;;;;;;;8.30;7.50;;;23.10;60.30;;;;;;5094996;28;20193;-62
2021/09/09 02:02:35;;;;;;;7.25;6.63;;;23.10;60.30;;;;;;5094441;28;20254;-62
2021/09/09 02:05:00;;;;;;;7.75;7.05;;;23.10;60.40;;;;;;5094005;28;20162;-61
2021/09/09 02:07:26;;;;;;;7.85;7.15;;;23.10;60.40;;;;;;5094632;28;20674;-62
2021/09/09 02:09:51;;;;;;;7.40;6.70;;;23.10;60.30;;;;;;5094502;28;20632;-61
2021/09/09 02:12:17;;;;;;;8.40;7.65;;;23.10;60.30;;;;;;5093959;28;20212;-61
2021/09/09 02:14:42;;;;;;;6.82;6.30;;;23.10;60.40;;;;;;5094277;28;20251;-61
2021/09/09 02:17:09;;;;;;;7.18;6.57;;;23.10;60.40;;;;;;5094175;28;20598;-61
2021/09/09 02:19:34;;;;;;;7.70;7.00;;;23.10;60.40;;;;;;5093524;28;20185;-61
2021/09/09 02:22:00;;;;;;;7.57;6.97;;;23.10;60.40;;;;;;5094335;28;20650;-61
2021/09/09 02:24:25;;;;;;;7.53;6.82;;;23.00;60.40;;;;;;5094264;28;20182;-61
2021/09/09 02:26:51;;;;;;;7.75;7.03;;;23.00;61.20;;;;;;5093552;28;20174;-61
2021/09/09 02:29:16;;;;;;;7.60;6.90;;;23.00;60.30;;;;;;5094382;28;20192;-61
2021/09/09 02:31:42;;;;;;;7.85;7.15;;;23.00;60.30;;;;;;5093849;28;20581;-61
2021/09/09 02:34:07;;;;;;;7.05;6.45;;;23.00;60.40;;;;;;5093369;28;20641;-62
2021/09/09 02:36:33;;;;;;;7.80;7.10;;;23.00;60.40;;;;;;5094031;28;20178;-62
2021/09/09 02:38:59;;;;;;;7.30;6.70;;;23.10;60.40;;;;;;5094003;28;20590;-62
2021/09/09 02:41:24;;;;;;;7.78;7.07;;;23.00;60.40;;;;;;5093073;28;20173;-62
2021/09/09 02:43:50;;;;;;;7.93;7.22;;;23.00;60.40;;;;;;5094098;28;20166;-61
2021/09/09 02:46:15;;;;;;;8.50;7.50;;;23.00;60.40;;;;;;5093369;28;20207;-62
2021/09/09 02:48:41;;;;;;;7.53;6.82;;;23.00;60.30;;;;;;5093459;28;20173;-61
2021/09/09 02:51:06;;;;;;;7.68;6.93;;;23.00;60.40;;;;;;5093966;28;20262;-61
2021/09/09 02:53:32;;;;;;;8.00;7.30;;;23.00;60.40;;;;;;5093007;28;20166;-62
2021/09/09 02:55:57;;;;;;;7.65;6.95;;;23.00;60.40;;;;;;5093941;28;20182;-61
2021/09/09 02:58:23;;;;;;;7.82;7.13;;;23.00;60.40;;;;;;5093410;28;20169;-62
2021/09/09 03:00:48;;;;;;;7.93;7.22;;;23.00;60.40;;;;;;5092975;28;20173;-62
2021/09/09 03:03:14;;;;;;;7.97;7.28;;;23.00;60.50;;;;;;5093676;28;20593;-62
2021/09/09 03:05:39;;;;;;;7.43;6.72;;;23.00;60.50;;;;;;5093530;28;20284;-62
2021/09/09 03:08:05;;;;;;;7.65;6.95;;;23.00;60.50;;;;;;5093081;28;20188;-61
2021/09/09 03:10:30;;;;;;;7.45;6.85;;;23.00;60.40;;;;;;5093337;28;20177;-62
2021/09/09 03:12:56;;;;;;;7.68;6.95;;;23.00;60.40;;;;;;5093549;28;20249;-61
2021/09/09 03:15:22;;;;;;;7.85;7.15;;;23.00;60.50;;;;;;5092733;28;20174;-61
2021/09/09 03:17:47;;;;;;;7.55;6.82;;;23.00;60.40;;;;;;5093322;28;20550;-61
2021/09/09 03:20:13;;;;;;;7.97;7.28;;;23.00;60.50;;;;;;5093521;28;20181;-61
2021/09/09 03:22:38;;;;;;;7.55;6.88;;;22.90;60.40;;;;;;5092206;28;20274;-61
2021/09/09 03:25:04;;;;;;;7.50;6.88;;;22.90;60.50;;;;;;5093330;28;20625;-61
2021/09/09 03:27:29;;;;;;;7.80;7.18;;;22.90;60.50;;;;;;5092728;28;20169;-61
2021/09/09 03:29:55;;;;;;;8.20;7.45;;;22.90;60.50;;;;;;5091901;28;20201;-61
2021/09/09 03:32:20;;;;;;;8.00;7.30;;;22.90;60.50;;;;;;5092625;28;20669;-61
2021/09/09 03:34:46;;;;;;;7.55;6.95;;;22.90;60.40;;;;;;5093274;28;20181;-62
2021/09/09 03:37:11;;;;;;;8.18;7.47;;;22.90;60.50;;;;;;5092491;28;20713;-62
2021/09/09 03:39:37;;;;;;;7.53;6.85;;;22.90;60.50;;;;;;5092766;28;20180;-62
2021/09/09 03:42:03;;;;;;;7.60;6.90;;;22.90;60.50;;;;;;5092836;28;20174;-61
2021/09/09 03:44:28;;;;;;;7.60;6.90;;;22.90;60.50;;;;;;5091680;28;20667;-62
2021/09/09 03:46:54;;;;;;;7.20;6.60;;;22.90;60.50;;;;;;5092815;28;20210;-62
2021/09/09 03:49:19;;;;;;;7.75;7.15;;;22.90;60.50;;;;;;5092611;28;20176;-62
2021/09/09 03:51:45;;;;;;;7.82;7.20;;;22.90;60.50;;;;;;5091781;28;20205;-62
2021/09/09 03:54:10;;;;;;;7.72;7.03;;;22.90;60.50;;;;;;5092853;28;20180;-61
2021/09/09 03:56:36;;;;;;;7.68;6.97;;;22.90;60.50;;;;;;5091651;28;20177;-61
2021/09/09 03:59:01;;;;;;;7.82;7.13;;;22.90;60.50;;;;;;5092495;28;20174;-62
2021/09/09 04:01:27;;;;;;;8.60;7.80;;;22.90;60.50;;;;;;5092377;28;20268;-62
2021/09/09 04:03:52;;;;;;;8.25;7.55;;;22.90;60.50;;;;;;5091800;28;20166;-62
2021/09/09 04:06:20;;;;;;;8.07;7.38;;;22.90;60.50;;;;;;5092454;28;20209;-63
2021/09/09 04:08:45;;;;;;;7.55;6.90;;;22.90;60.50;;;;;;5092605;28;20184;-62
2021/09/09 04:11:11;;;;;;;8.30;7.60;;;22.90;60.60;;;;;;5091814;28;20205;-62
2021/09/09 04:13:37;;;;;;;7.95;7.25;;;22.80;60.50;;;;;;5092238;28;20178;-62
2021/09/09 04:16:03;;;;;;;7.18;6.57;;;22.80;60.50;;;;;;5092372;28;20182;-61
2021/09/09 04:18:28;;;;;;;7.80;7.10;;;22.80;60.50;;;;;;5091547;28;20265;-62
2021/09/09 04:20:54;;;;;;;7.60;6.90;;;22.80;60.50;;;;;;5092716;28;20620;-61
2021/09/09 04:23:19;;;;;;;7.68;6.97;;;22.90;60.50;;;;;;5092200;28;20567;-62
2021/09/09 04:25:45;;;;;;;7.68;6.97;;;22.80;60.50;;;;;;5091770;28;20170;-61
2021/09/09 04:28:10;;;;;;;7.90;7.13;;;22.80;60.50;;;;;;5092177;28;20235;-61
2021/09/09 04:30:36;;;;;;;7.60;6.95;;;22.70;60.40;;;;;;5091865;28;20213;-62
2021/09/09 04:33:01;;;;;;;8.32;7.53;;;22.80;60.50;;;;;;5091595;28;20217;-61
2021/09/09 04:35:27;;;;;;;7.43;6.82;;;22.80;60.50;;;;;;5092086;28;20174;-62
2021/09/09 04:37:52;;;;;;;8.02;7.32;;;22.80;60.50;;;;;;5092251;28;20173;-62
2021/09/09 04:40:18;;;;;;;7.65;7.05;;;22.80;60.50;;;;;;5093792;28;20197;-62
2021/09/09 04:42:43;;;;;;;8.05;7.35;;;22.80;60.50;;;;;;5096083;28;20169;-63
2021/09/09 04:45:09;;;;;;;8.00;7.20;;;22.80;60.50;;;;;;5096241;28;20265;-62
2021/09/09 04:47:36;;;;;;;7.47;6.88;;;22.80;60.50;;;;;;5095253;28;20639;-62
2021/09/09 04:50:02;;;;;;;8.20;7.40;;;22.80;60.50;;;;;;5096203;28;20180;-61
2021/09/09 04:52:27;;;;;;;7.80;7.10;;;22.80;60.50;;;;;;5095946;28;20282;-62
2021/09/09 04:54:53;;;;;;;7.78;7.18;;;22.80;60.50;;;;;;5095451;28;20174;-61
2021/09/09 04:57:18;;;;;;;8.77;7.45;;;22.80;60.50;;;;;;5095958;28;20182;-62
2021/09/09 04:59:44;;;;;;;7.97;7.25;;;22.80;60.50;;;;;;5095774;28;20177;-61
2021/09/09 05:02:09;;;;;;;8.38;7.55;;;22.80;60.50;;;;;;5095318;28;20177;-61
2021/09/09 05:04:37;;;;;;;8.00;7.30;;;22.80;61.30;;;;;;5095870;28;20632;-62
2021/09/09 05:07:03;;;;;;;7.82;7.13;;;22.80;60.50;;;;;;5095024;28;20174;-62
2021/09/09 05:09:29;;;;;;;8.45;7.75;;;22.80;60.50;;;;;;5095630;28;20177;-62
2021/09/09 05:11:54;;;;;;;7.75;7.05;;;22.80;60.50;;;;;;5095760;28;20201;-61
2021/09/09 05:14:20;;;;;;;7.85;7.15;;;22.80;60.50;;;;;;5094556;28;20508;-61
2021/09/09 05:16:45;;;;;;;7.82;7.22;;;22.70;60.40;;;;;;5095584;28;20177;-62
2021/09/09 05:19:10;;;;;;;8.45;7.68;;;22.70;60.40;;;;;;5095877;28;20177;-61
2021/09/09 05:21:36;;;;;;;7.35;6.75;;;22.70;60.40;;;;;;5094369;28;20241;-62
2021/09/09 05:24:02;;;;;;;8.20;7.47;;;22.70;60.40;;;;;;5095752;28;20582;-61
2021/09/09 05:26:27;;;;;;;8.02;7.32;;;22.70;60.40;;;;;;5095291;28;20652;-61
2021/09/09 05:28:52;;;;;;;8.20;7.43;;;22.70;60.40;;;;;;5094688;28;20169;-61
2021/09/09 05:31:18;;;;;;;8.30;7.60;;;22.70;60.40;;;;;;5095326;28;20264;-62
2021/09/09 05:33:43;;;;;;;9.07;8.13;;;22.70;60.40;;;;;;5095183;28;20363;-62
2021/09/09 05:36:09;;;;;;;7.75;7.00;;;22.70;60.40;;;;;;5094781;28;20174;-62
2021/09/09 05:38:35;;;;;;;7.78;7.10;;;22.70;60.40;;;;;;5095017;28;20233;-63
2021/09/09 05:41:00;;;;;;;7.88;7.10;;;22.80;60.50;;;;;;5095287;28;20620;-62
2021/09/09 05:43:26;;;;;;;7.60;6.95;;;22.70;60.40;;;;;;5094207;28;20223;-63
2021/09/09 05:45:51;;;;;;;8.20;7.50;;;22.60;60.30;;;;;;5095060;28;20223;-62
2021/09/09 05:48:17;;;;;;;8.15;7.45;;;22.70;60.40;;;;;;5095086;28;20188;-62
2021/09/09 05:50:42;;;;;;;8.27;7.57;;;22.70;60.40;;;;;;5093495;28;20521;-63
2021/09/09 05:53:08;;;;;;;8.13;7.43;;;22.70;60.40;;;;;;5094656;28;20209;-62
2021/09/09 05:55:33;;;;;;;7.57;6.97;;;22.70;60.40;;;;;;5094662;28;20193;-62
2021/09/09 05:57:59;;;;;;;8.27;7.57;;;22.70;60.40;;;;;;5094135;28;20169;-62
2021/09/09 06:00:24;;;;;;;7.90;7.10;;;22.70;60.40;;;;;;5094533;28;20170;-62
2021/09/09 06:02:50;;;;;;;8.35;7.65;;;22.70;60.40;;;;;;5094797;28;20697;-62
2021/09/09 06:05:16;;;;;;;7.47;6.88;;;22.70;60.40;;;;;;5094333;28;20226;-62
2021/09/09 06:07:42;;;;;;;8.35;7.55;;;22.70;60.40;;;;;;5094706;28;20239;-62
2021/09/09 06:10:08;;;;;;;7.72;7.03;;;22.80;60.40;;;;;;5094771;28;20209;-62
2021/09/09 06:12:34;;;;;;;8.57;7.88;;;22.70;60.30;;;;;;5093776;28;20520;-62
2021/09/09 06:14:59;;;;;;;7.72;7.03;;;22.70;60.30;;;;;;5094595;28;20174;-61
2021/09/09 06:17:25;;;;;;;8.70;7.90;;;22.70;60.30;;;;;;5093493;28;20181;-62
2021/09/09 06:19:50;;;;;;;9.13;8.30;;;22.70;60.30;;;;;;5094588;28;20296;-62
2021/09/09 06:22:16;;;;;;;8.05;7.35;;;22.80;60.40;;;;;;5094276;28;20391;-62
2021/09/09 06:24:41;;;;;;;8.90;8.00;;;22.80;60.40;;;;;;5093379;28;20658;-62
2021/09/09 06:27:07;;;;;;;9.18;8.38;;;22.80;60.30;;;;;;5094266;28;20178;-62
2021/09/09 06:29:32;;;;;;;12.05;10.85;;;22.70;60.00;;;;;;5093913;28;20532;-62
2021/09/09 06:31:58;;;;;;;14.20;12.80;;;22.70;59.60;;;;;;5093387;28;20558;-62
2021/09/09 06:34:23;;;;;;;13.80;12.50;;;22.70;59.10;;;;;;5093952;28;20530;-63
2021/09/09 06:36:49;;;;;;;15.68;13.57;;;22.70;58.80;;;;;;5094053;28;20254;-63
2021/09/09 06:39:14;;;;;;;15.75;14.18;;;22.70;58.90;;;;;;5093447;28;20185;-62
2021/09/09 06:41:44;;;;;;;14.40;13.02;;;22.70;58.60;;;;;;5093716;28;20182;-62
2021/09/09 06:44:11;;;;;;;14.35;12.90;;;22.70;58.90;;;;;;5093955;28;20182;-61
2021/09/09 06:46:36;;;;;;;14.10;12.70;;;22.70;59.10;;;;;;5093156;28;20178;-62
2021/09/09 06:49:02;;;;;;;16.38;12.45;;;22.70;59.10;;;;;;5093998;28;20256;-63
2021/09/09 06:51:27;;;;;;;13.63;12.35;;;22.80;59.00;;;;;;5093239;28;20237;-63
2021/09/09 06:53:53;;;;;;;13.32;11.60;;;22.80;59.10;;;;;;5093334;28;20537;-62
2021/09/09 06:56:18;;;;;;;12.63;11.43;;;22.80;59.00;;;;;;5093741;28;20231;-61
2021/09/09 06:58:44;;;;;;;12.93;11.18;;;22.80;59.10;;;;;;5093183;28;20170;-61
2021/09/09 07:01:09;;;;;;;12.20;10.90;;;22.80;59.10;;;;;;5093264;28;20231;-62
2021/09/09 07:03:35;;;;;;;12.45;11.02;;;22.80;59.10;;;;;;5092275;28;20692;-62
2021/09/09 07:06:00;;;;;;;13.52;11.50;;;22.80;59.20;;;;;;5093667;28;20181;-62
2021/09/09 07:08:26;;;;;;;14.40;10.85;;;22.90;59.20;;;;;;5092592;28;20177;-62
2021/09/09 07:10:51;;;;;;;13.88;10.38;;;22.90;59.20;;;;;;5093366;28;20213;-61
2021/09/09 07:13:17;;;;;;;14.25;10.73;;;22.90;59.20;;;;;;5093327;28;20261;-61
2021/09/09 07:15:44;;;;;;;11.75;10.68;;;22.90;59.20;;;;;;5092602;28;20208;-63
2021/09/09 07:18:09;;;;;;;12.43;11.13;;;22.90;59.20;;;;;;5093582;28;20571;-62
2021/09/09 07:20:35;;;;;;;12.93;10.77;;;23.00;59.20;;;;;;5092265;28;20593;-63
2021/09/09 07:23:00;;;;;;;12.23;11.00;;;23.00;59.20;;;;;;5093103;28;20224;-62
2021/09/09 07:25:26;;;;;;;15.13;11.60;;;23.00;59.20;;;;;;5092877;28;20198;-62
2021/09/09 07:27:51;;;;;;;13.82;11.60;;;23.00;59.20;;;;;;5092381;28;20313;-62
2021/09/09 07:30:17;;;;;;;13.75;11.15;;;23.00;59.20;;;;;;5093023;28;20502;-61
2021/09/09 07:32:42;;;;;;;14.27;12.80;;;23.00;59.30;;;;;;5092956;28;20225;-62
2021/09/09 07:35:09;;;;;;;13.55;12.25;;;23.00;59.20;;;;;;5092288;28;20622;-63
2021/09/09 07:37:34;;;;;;;13.38;12.10;;;23.00;58.90;;;;;;5092756;28;20178;-63
2021/09/09 07:40:00;;;;;;;13.27;11.88;;;23.10;58.90;;;;;;5092933;28;20226;-62
2021/09/09 07:42:25;;;;;;;13.35;11.82;;;23.10;58.80;;;;;;5091827;28;20587;-60
2021/09/09 07:44:51;;;;;;;12.35;11.13;;;23.20;58.90;;;;;;5093181;28;20195;-64
2021/09/09 07:47:16;;;;;;;13.43;11.70;;;23.20;58.90;;;;;;5093079;28;20177;-62
2021/09/09 07:49:42;;;;;;;14.82;11.77;;;23.20;59.00;;;;;;5091960;28;20174;-61
2021/09/09 07:52:07;;;;;;;16.92;11.50;;;23.20;58.90;;;;;;5092715;28;20205;-63
2021/09/09 07:54:33;;;;;;;14.25;11.40;;;23.20;59.00;;;;;;5092387;28;20162;-63
2021/09/09 07:56:58;;;;;;;19.25;11.98;;;23.20;59.00;;;;;;5091811;28;20177;-61
2021/09/09 07:59:24;;;;;;;18.80;12.05;;;23.30;59.00;;;;;;5100734;28;20628;-62
2021/09/09 08:01:50;;;;;;;15.70;11.63;;;23.30;59.00;;;;;;5096303;28;20169;-62
2021/09/09 08:04:16;;;;;;;19.50;11.75;;;23.30;59.00;;;;;;5112255;28;20173;-62
2021/09/09 08:06:45;;;;;;;15.13;11.45;;;23.30;59.10;;;;;;5103761;28;20170;-62
2021/09/09 08:09:10;;;;;;;15.98;10.70;;;23.30;59.10;;;;;;5092442;28;20169;-62
2021/09/09 08:11:36;;;;;;;13.15;10.30;;;23.30;59.10;;;;;;5091814;28;20239;-62
2021/09/09 08:14:01;;;;;;;13.05;10.88;;;23.30;59.20;;;;;;5092204;28;20269;-62
2021/09/09 08:16:27;;;;;;;12.63;11.32;;;23.40;59.20;;;;;;5111145;28;20268;-62
2021/09/09 08:18:52;;;;;;;13.18;11.10;;;23.40;59.20;;;;;;5111993;28;20172;-62
2021/09/09 08:21:18;;;;;;;11.52;10.25;;;23.40;59.20;;;;;;5112428;28;20520;-62
2021/09/09 08:23:43;;;;;;;14.05;10.93;;;23.40;59.20;;;;;;5112253;28;20265;-62
2021/09/09 08:26:09;;;;;;;14.43;10.43;;;23.40;59.30;;;;;;5111805;28;20189;-62
2021/09/09 08:28:36;;;;;;;15.25;11.57;;;23.40;59.20;;;;;;5112198;28;20207;-61
2021/09/09 08:31:01;;;;;;;12.63;10.25;;;23.40;59.20;;;;;;5112086;28;20177;-61
2021/09/09 08:33:27;;;;;;;11.48;10.15;;;23.50;59.30;;;;;;5093954;28;20181;-62
2021/09/09 08:35:52;;;;;;;13.00;10.80;;;23.40;59.30;;;;;;5092423;28;20177;-63
2021/09/09 08:38:18;;;;;;;12.57;10.30;;;23.50;59.30;;;;;;5091465;28;20173;-63
2021/09/09 08:40:44;;;;;;;11.27;10.07;;;23.50;59.30;;;;;;5091865;28;20209;-63
2021/09/09 08:43:09;;;;;;;11.02;9.80;;;23.50;60.00;;;;;;5074514;28;20177;-62
2021/09/09 08:45:35;;;;;;;12.13;10.52;;;23.50;59.30;;;;;;5091270;28;20257;-63
2021/09/09 08:48:02;;;;;;;11.35;10.15;;;23.50;59.30;;;;;;5092013;28;20207;-62
2021/09/09 08:50:28;;;;;;;11.98;9.88;;;23.60;59.40;;;;;;5091913;28;20313;-63
2021/09/09 08:52:54;;;;;;;12.65;9.70;;;23.60;59.40;;;;;;5091425;28;20671;-62
2021/09/09 08:55:20;;;;;;;14.07;10.25;;;23.60;59.40;;;;;;5090617;28;20178;-62
2021/09/09 08:57:45;;;;;;;15.25;10.50;;;23.60;59.40;;;;;;5091837;28;20180;-62
2021/09/09 09:00:11;;;;;;;12.43;9.57;;;24.00;59.60;;;;;;5091267;28;20266;-59
2021/09/09 09:02:50;;;;;;;13.77;10.32;;;23.60;59.50;;;;;;5091865;28;20235;-58
2021/09/09 09:05:15;;;;;;;11.95;9.55;;;23.70;59.60;;;;;;5092039;28;20177;-58
2021/09/09 09:07:41;;;;;;;17.73;9.95;;;23.70;59.70;;;;;;5110239;28;20181;-61
2021/09/09 09:10:08;;;;;;;15.77;10.85;;;23.70;59.60;;;;;;5112215;28;20185;-60
2021/09/09 09:12:44;;;;;;;11.90;9.98;;;23.80;59.60;;;;;;5111808;28;20585;-61
2021/09/09 09:15:11;;;;;;;15.82;10.15;;;23.80;59.60;;;;;;5111825;28;20172;-60
2021/09/09 09:18:06;;;;;;;11.75;9.80;;;23.90;59.70;;;;;;5112237;28;20577;-61
2021/09/09 09:20:41;;;;;;;10.48;9.45;;;23.90;59.70;;;;;;5111222;28;20238;-62
2021/09/09 09:23:14;;;;;;;12.88;9.48;;;23.90;59.70;;;;;;5112100;28;20228;-62
2021/09/09 09:25:47;;;;;;;10.35;9.27;;;23.90;59.70;;;;;;5111963;28;20185;-63
2021/09/09 09:28:13;;;;;;;11.90;9.70;;;24.00;59.70;;;;;;5114708;28;20690;-63
2021/09/09 09:30:40;;;;;;;11.80;9.13;;;24.00;59.70;;;;;;5115506;28;20600;-61
2021/09/09 09:33:06;;;;;;;11.05;9.25;;;24.00;59.60;;;;;;5097428;28;20208;-58
2021/09/09 09:35:31;;;;;;;12.10;10.40;;;24.00;59.70;;;;;;5114742;28;20181;-59
2021/09/09 09:38:03;;;;;;;11.35;9.55;;;24.00;60.50;;;;;;5115758;28;20197;-59
2021/09/09 09:40:40;;;;;;;10.02;9.05;;;24.00;59.80;;;;;;5115397;28;20260;-58
2021/09/09 09:43:07;;;;;;;9.30;8.25;;;24.00;59.80;;;;;;5114986;28;20180;-59
2021/09/09 09:45:33;;;;;;;10.20;9.13;;;24.00;59.80;;;;;;5115194;28;20622;-59
2021/09/09 09:47:58;;;;;;;10.35;9.35;;;24.00;59.80;;;;;;5114033;28;20205;-58
2021/09/09 09:50:24;;;;;;;10.88;9.80;;;24.00;59.80;;;;;;5114380;28;20187;-59
2021/09/09 09:52:50;;;;;;;9.73;8.73;;;24.10;59.80;;;;;;5115586;28;20204;-60
2021/09/09 09:55:16;;;;;;;10.43;9.43;;;24.00;59.80;;;;;;5113420;28;20181;-59
2021/09/09 09:57:52;;;;;;;10.40;8.85;;;24.10;59.70;;;;;;5114883;28;20177;-59
2021/09/09 10:00:18;;;;;;;10.13;9.07;;;24.10;60.50;;;;;;5115397;28;20185;-59
2021/09/09 10:02:43;;;;;;;9.75;8.82;;;24.10;59.60;;;;;;5114483;28;20180;-59
2021/09/09 10:05:09;;;;;;;9.77;8.88;;;24.10;59.50;;;;;;5097162;28;20180;-59
2021/09/09 10:07:34;;;;;;;10.25;8.80;;;24.10;59.50;;;;;;5074506;28;20175;-59
2021/09/09 10:10:00;;;;;;;9.70;8.57;;;24.10;59.50;;;;;;5073728;28;20179;-58
2021/09/09 10:12:26;;;;;;;11.73;8.85;;;24.10;59.50;;;;;;5106438;28;20202;-59
2021/09/09 10:14:54;;;;;;;10.15;9.15;;;24.10;59.50;;;;;;5074627;28;20198;-59
2021/09/09 10:17:20;;;;;;;9.75;8.85;;;24.20;59.50;;;;;;5105634;28;20183;-59
2021/09/09 10:19:46;;;;;;;13.77;9.15;;;24.20;59.50;;;;;;5106852;28;20201;-63
2021/09/09 10:22:12;;;;;;;9.95;8.95;;;24.20;59.50;;;;;;5106771;28;20226;-61
2021/09/09 10:24:42;;;;;;;10.95;8.40;;;24.20;59.60;;;;;;5073162;28;20232;-60
2021/09/09 10:27:19;;;;;;;10.23;9.23;;;24.30;59.50;;;;;;5074238;28;20298;-60
2021/09/09 10:29:49;;;;;;;10.95;9.85;;;24.40;60.00;;;;;;5074380;28;20181;-61
2021/09/09 10:32:29;;;;;;;10.52;9.05;;;24.30;59.90;;;;;;5073354;28;20246;-60
2021/09/09 10:35:19;;;;;;;12.65;8.73;;;24.30;60.00;;;;;;5074271;28;20214;-61
2021/09/09 10:37:48;;;;;;;12.40;8.98;;;24.40;60.00;;;;;;5069342;28;20182;-62
2021/09/09 10:40:31;;;;;;;9.80;8.82;;;24.50;60.00;;;;;;5074048;28;20178;-61
2021/09/09 10:42:58;;;;;;;10.38;8.60;;;24.50;59.90;;;;;;5073925;28;20170;-60
2021/09/09 10:45:38;;;;;;;9.40;7.70;;;24.50;60.00;;;;;;5088619;28;20205;-62
2021/09/09 10:48:05;;;;;;;11.82;9.38;;;24.50;59.80;;;;;;5073836;28;20181;-60
2021/09/09 10:50:30;;;;;;;10.88;8.52;;;24.50;59.90;;;;;;5073532;28;20178;-60
2021/09/09 10:52:59;;;;;;;9.32;8.35;;;24.50;59.90;;;;;;5072814;28;20221;-60
2021/09/09 10:55:27;;;;;;;11.85;8.63;;;24.50;59.90;;;;;;5073190;28;20514;-60
2021/09/09 10:58:19;;;;;;;9.60;8.45;;;24.50;60.00;;;;;;5073737;28;20187;-60
2021/09/09 11:00:51;;;;;;;9.68;8.52;;;24.50;60.00;;;;;;5072502;28;20690;-61
2021/09/09 11:03:35;;;;;;;9.05;8.15;;;24.40;60.10;;;;;;5073555;28;20242;-60
2021/09/09 11:06:01;;;;;;;9.52;8.30;;;24.40;60.10;;;;;;5083204;28;20766;-60
2021/09/09 11:08:30;;;;;;;8.07;7.38;;;24.40;60.00;;;;;;5113676;28;20177;-60
2021/09/09 11:10:56;;;;;;;9.35;8.45;;;24.50;60.00;;;;;;5113595;28;20205;-60
2021/09/09 11:13:28;;;;;;;10.07;8.00;;;24.50;59.90;;;;;;5112806;28;20678;-60
2021/09/09 11:15:54;;;;;;;8.77;7.90;;;24.50;59.90;;;;;;5114005;28;20188;-59
2021/09/09 11:18:27;;;;;;;8.48;7.68;;;24.50;59.80;;;;;;5113695;28;20192;-60
2021/09/09 11:21:05;;;;;;;8.93;8.13;;;24.50;59.80;;;;;;5113017;28;20177;-60
2021/09/09 11:23:31;;;;;;;8.10;7.40;;;24.50;59.80;;;;;;5113162;28;20247;-59
2021/09/09 11:26:12;;;;;;;8.85;7.95;;;24.50;59.80;;;;;;5113760;28;20173;-60
2021/09/09 11:28:37;;;;;;;8.52;7.72;;;24.60;59.80;;;;;;5111652;28;20572;-60
2021/09/09 11:31:05;;;;;;;9.40;8.00;;;24.60;59.70;;;;;;5113269;28;20627;-59
2021/09/09 11:33:30;;;;;;;8.35;7.65;;;24.60;59.70;;;;;;5113316;28;20280;-61
2021/09/09 11:36:05;;;;;;;10.20;8.00;;;24.60;59.70;;;;;;5112585;28;20268;-60
2021/09/09 11:38:33;;;;;;;8.13;7.38;;;24.60;59.70;;;;;;5113035;28;20615;-61
2021/09/09 11:41:09;;;;;;;8.68;7.80;;;24.60;59.70;;;;;;5112719;28;20181;-60
2021/09/09 11:43:35;;;;;;;8.77;7.90;;;24.60;60.40;;;;;;5112917;28;20615;-61
2021/09/09 11:46:00;;;;;;;8.27;7.55;;;24.60;59.60;;;;;;5111967;28;20229;-60
2021/09/09 11:48:26;;;;;;;8.20;7.47;;;24.60;59.60;;;;;;5112053;28;20652;-61
2021/09/09 11:50:51;;;;;;;8.95;8.02;;;24.70;59.60;;;;;;5112481;28;20536;-60
2021/09/09 11:53:24;;;;;;;8.23;7.43;;;24.60;59.50;;;;;;5113395;28;20240;-60
2021/09/09 11:55:50;;;;;;;8.30;7.43;;;24.70;59.60;;;;;;5112380;28;20254;-60
2021/09/09 11:58:32;;;;;;;8.38;7.47;;;24.60;59.60;;;;;;5113064;28;20185;-61
2021/09/09 12:00:59;;;;;;;8.48;7.68;;;24.70;59.60;;;;;;5111686;28;20559;-60
2021/09/09 12:03:25;;;;;;;8.45;7.30;;;24.70;59.40;;;;;;5111975;28;20173;-60
2021/09/09 12:05:52;;;;;;;8.32;7.53;;;24.80;59.50;;;;;;5112104;28;20668;-61
2021/09/09 12:08:18;;;;;;;7.90;7.20;;;24.80;59.40;;;;;;5111843;28;20183;-60
2021/09/09 12:10:44;;;;;;;8.35;7.55;;;24.80;59.50;;;;;;5093803;28;20176;-60
2021/09/09 12:13:10;;;;;;;8.25;7.47;;;24.60;59.60;;;;;;5111121;28;20659;-60
2021/09/09 12:15:36;;;;;;;7.82;7.22;;;24.60;59.70;;;;;;5094305;28;20306;-60
2021/09/09 12:18:09;;;;;;;8.43;7.63;;;24.60;59.70;;;;;;5111956;28;20325;-60
2021/09/09 12:20:42;;;;;;;7.95;7.35;;;24.60;59.80;;;;;;5112734;28;20202;-60
2021/09/09 12:23:07;;;;;;;8.15;7.38;;;24.60;59.80;;;;;;5111861;28;20752;-64
2021/09/09 12:25:34;;;;;;;12.30;7.97;;;24.60;59.80;;;;;;5112511;28;20264;-64
2021/09/09 12:28:04;;;;;;;7.97;7.28;;;24.60;59.90;;;;;;5112701;28;20175;-59
2021/09/09 12:30:31;;;;;;;8.00;7.25;;;24.60;60.20;;;;;;5111553;28;20176;-61
2021/09/09 12:32:58;;;;;;;8.02;7.28;;;24.60;59.90;;;;;;5112426;28;20729;-59
2021/09/09 12:35:23;;;;;;;8.60;7.80;;;24.60;59.90;;;;;;5112329;28;20196;-61
2021/09/09 12:38:09;;;;;;;8.32;7.57;;;24.60;59.90;;;;;;5111942;28;20205;-61